Time;durP1;ratioP1;P1;durP2;ratioP2;P2;SDS_P1;SDS_P2;PMS_P1;PMS_P2;Temp;Humidity;BMP_temperature;BMP_pressure;BME280_temperature;BME280_humidity;BME280_pressure;Samples;Min_cycle;Max_cycle;Signal;HPM_P1;HPM_P2
2021/05/08 00:02:01;;;;;;;14.00;11.97;;;6.40;99.90;;;;;;4938966;29;20194;-70
2021/05/08 00:04:26;;;;;;;14.50;11.50;;;6.50;99.90;;;;;;4940621;29;20569;-70
2021/05/08 00:06:52;;;;;;;12.30;11.00;;;6.50;99.90;;;;;;4937244;29;20536;-70
2021/05/08 00:09:18;;;;;;;11.27;10.00;;;6.60;99.90;;;;;;4937523;29;20210;-70
2021/05/08 00:11:43;;;;;;;12.80;10.63;;;6.60;99.90;;;;;;4937555;29;20193;-70
2021/05/08 00:14:09;;;;;;;11.83;10.50;;;6.50;99.90;;;;;;4936996;29;20174;-71
2021/05/08 00:16:35;;;;;;;12.50;11.20;;;6.60;99.90;;;;;;4935907;29;20198;-71
2021/05/08 00:19:01;;;;;;;12.17;10.73;;;6.60;99.90;;;;;;4937231;29;20182;-71
2021/05/08 00:21:27;;;;;;;11.47;10.33;;;6.60;99.90;;;;;;4937385;29;20265;-71
2021/05/08 00:23:53;;;;;;;14.80;12.33;;;6.60;99.90;;;;;;4937045;29;20999;-69
2021/05/08 00:26:18;;;;;;;13.23;11.93;;;6.50;99.90;;;;;;4935487;29;20325;-69
2021/05/08 00:28:44;;;;;;;14.40;12.90;;;6.50;99.90;;;;;;4937152;28;20545;-69
2021/05/08 00:31:10;;;;;;;15.07;12.97;;;6.30;99.90;;;;;;4936719;29;20167;-69
2021/05/08 00:33:35;;;;;;;18.33;14.10;;;6.20;99.90;;;;;;4937161;29;20631;-69
2021/05/08 00:36:01;;;;;;;15.30;13.70;;;6.10;99.90;;;;;;4935388;29;20442;-70
2021/05/08 00:38:26;;;;;;;16.83;14.60;;;6.00;99.90;;;;;;4937139;29;20174;-69
2021/05/08 00:40:52;;;;;;;16.73;13.50;;;6.00;99.90;;;;;;4936624;29;20182;-70
2021/05/08 00:43:18;;;;;;;13.47;12.20;;;6.10;99.90;;;;;;4936656;29;20197;-70
2021/05/08 00:45:44;;;;;;;12.53;10.93;;;6.10;99.90;;;;;;4936858;29;20719;-69
2021/05/08 00:48:12;;;;;;;13.53;11.80;;;6.20;99.90;;;;;;4935727;29;20505;-69
2021/05/08 00:50:38;;;;;;;12.37;10.33;;;6.20;99.90;;;;;;4937370;29;20413;-69
2021/05/08 00:53:06;;;;;;;12.37;10.77;;;6.20;99.90;;;;;;4936673;29;20436;-69
2021/05/08 00:55:32;;;;;;;12.60;11.30;;;6.30;99.90;;;;;;4936419;28;20187;-70
2021/05/08 00:57:59;;;;;;;13.57;12.23;;;6.30;99.90;;;;;;4935442;29;20418;-69
2021/05/08 01:00:25;;;;;;;12.17;10.93;;;6.30;99.90;;;;;;4937338;29;20414;-69
2021/05/08 01:02:51;;;;;;;14.03;12.30;;;6.30;99.90;;;;;;4937156;29;20446;-69
2021/05/08 01:05:18;;;;;;;14.73;11.93;;;6.30;99.90;;;;;;4938036;29;20437;-70
2021/05/08 01:07:44;;;;;;;12.87;11.57;;;6.30;99.90;;;;;;4937551;29;20185;-69
2021/05/08 01:10:12;;;;;;;16.27;14.57;;;6.10;99.90;;;;;;4945022;29;20415;-69
2021/05/08 01:12:38;;;;;;;15.37;13.77;;;6.00;99.90;;;;;;4951422;29;20616;-69
2021/05/08 01:15:06;;;;;;;15.23;12.83;;;5.80;99.90;;;;;;4936656;29;20462;-70
2021/05/08 01:17:32;;;;;;;12.30;10.43;;;5.90;99.90;;;;;;4935937;29;20426;-70
2021/05/08 01:19:57;;;;;;;15.67;13.83;;;5.90;99.90;;;;;;4935656;29;20517;-69
2021/05/08 01:22:23;;;;;;;13.37;12.00;;;6.00;99.90;;;;;;4937354;29;20469;-69
2021/05/08 01:24:48;;;;;;;14.90;12.43;;;6.00;99.90;;;;;;4951363;29;20210;-69
2021/05/08 01:27:14;;;;;;;12.67;11.33;;;6.00;99.90;;;;;;4936031;29;20261;-69
2021/05/08 01:29:39;;;;;;;12.90;11.60;;;6.10;99.90;;;;;;4937383;29;20178;-69
2021/05/08 01:32:05;;;;;;;15.23;13.33;;;6.00;99.90;;;;;;4939343;29;20208;-69
2021/05/08 01:34:31;;;;;;;13.57;12.13;;;6.10;99.90;;;;;;4941949;29;20206;-69
2021/05/08 01:40:18;;;;;;;14.30;12.80;;;6.00;99.90;;;;;;4940659;29;20218;-69
2021/05/08 01:42:48;;;;;;;17.83;13.97;;;5.90;99.90;;;;;;4928637;29;20430;-70
2021/05/08 01:45:17;;;;;;;15.47;13.87;;;5.80;99.90;;;;;;4935628;29;20273;-70
2021/05/08 01:47:42;;;;;;;16.63;14.80;;;5.80;99.90;;;;;;4920884;29;20505;-69
2021/05/08 01:50:10;;;;;;;14.63;12.93;;;5.80;99.90;;;;;;4921132;29;20843;-69
2021/05/08 01:52:36;;;;;;;15.60;12.83;;;5.80;99.90;;;;;;4926116;29;20437;-69
2021/05/08 01:55:09;;;;;;;13.93;12.00;;;5.90;99.90;;;;;;4939776;29;20429;-69
2021/05/08 01:57:57;;;;;;;13.40;11.90;;;6.00;99.90;;;;;;4939877;28;20433;-69
2021/05/08 02:00:38;;;;;;;15.43;13.77;;;6.00;99.90;;;;;;4940063;29;20406;-71
2021/05/08 02:03:04;;;;;;;15.50;13.17;;;6.00;99.90;;;;;;4937435;29;20422;-70
2021/05/08 02:05:33;;;;;;;15.33;13.20;;;6.00;99.90;;;;;;4939708;29;20421;-70
2021/05/08 02:08:01;;;;;;;15.63;13.57;;;6.00;99.90;;;;;;4939708;29;20398;-70
2021/05/08 02:10:28;;;;;;;16.63;13.60;;;6.00;99.90;;;;;;4939797;29;20508;-70
2021/05/08 02:12:54;;;;;;;15.20;13.27;;;6.00;99.90;;;;;;4939017;29;20493;-70
2021/05/08 02:15:20;;;;;;;14.07;12.67;;;6.00;99.90;;;;;;4937693;29;20987;-70
2021/05/08 02:17:46;;;;;;;15.70;13.60;;;6.00;99.90;;;;;;4939451;29;20402;-70
2021/05/08 02:20:13;;;;;;;15.60;13.30;;;6.00;99.90;;;;;;4939047;28;20194;-70
2021/05/08 02:22:39;;;;;;;16.33;14.60;;;5.80;99.90;;;;;;4938797;29;20163;-70
2021/05/08 02:25:08;;;;;;;14.50;12.97;;;5.80;99.90;;;;;;4937274;29;20464;-70
2021/05/08 02:27:35;;;;;;;14.43;12.53;;;5.80;99.90;;;;;;4938841;29;20452;-70
2021/05/08 02:30:01;;;;;;;15.83;13.53;;;5.80;99.90;;;;;;4938917;29;20418;-70
2021/05/08 02:32:27;;;;;;;13.70;12.30;;;5.80;99.90;;;;;;4938684;29;20435;-70
2021/05/08 02:34:52;;;;;;;14.37;12.43;;;5.80;99.90;;;;;;4936040;29;20948;-70
2021/05/08 02:37:18;;;;;;;14.40;12.17;;;5.80;99.90;;;;;;4938828;28;20248;-70
2021/05/08 02:39:43;;;;;;;13.30;11.97;;;5.90;99.90;;;;;;4938686;29;20185;-70
2021/05/08 02:42:09;;;;;;;16.80;13.10;;;5.90;99.90;;;;;;4938901;29;20192;-69
2021/05/08 02:44:35;;;;;;;16.33;14.63;;;5.80;99.90;;;;;;4938659;29;20212;-71
2021/05/08 02:47:00;;;;;;;16.50;14.70;;;5.80;99.90;;;;;;4937439;29;20655;-69
2021/05/08 02:49:26;;;;;;;16.50;14.10;;;5.70;99.90;;;;;;4937819;29;20179;-69
2021/05/08 02:51:51;;;;;;;15.40;13.77;;;5.70;99.90;;;;;;4938549;29;20535;-69
2021/05/08 02:54:17;;;;;;;16.00;14.27;;;5.70;99.90;;;;;;4939514;29;20582;-69
2021/05/08 02:56:43;;;;;;;20.10;15.00;;;5.70;99.90;;;;;;4931884;28;20195;-69
2021/05/08 02:59:08;;;;;;;16.43;13.83;;;5.70;99.90;;;;;;4920369;29;20200;-69
2021/05/08 03:01:34;;;;;;;17.20;13.90;;;5.70;99.90;;;;;;4920366;29;20226;-69
2021/05/08 03:03:59;;;;;;;19.80;14.30;;;5.70;99.90;;;;;;4918047;29;20254;-69
2021/05/08 03:06:25;;;;;;;20.20;15.07;;;5.70;99.90;;;;;;4919777;29;20175;-69
2021/05/08 03:08:50;;;;;;;17.07;15.33;;;5.70;99.90;;;;;;4920107;29;20260;-70
2021/05/08 03:11:16;;;;;;;16.00;14.33;;;5.70;99.90;;;;;;4919255;29;20207;-70
2021/05/08 03:13:41;;;;;;;16.00;14.40;;;5.60;99.90;;;;;;4919299;29;20305;-70
2021/05/08 03:16:07;;;;;;;17.40;14.03;;;5.50;99.90;;;;;;4919327;29;20717;-70
2021/05/08 03:18:33;;;;;;;23.07;16.10;;;5.30;99.90;;;;;;4920152;29;20198;-70
2021/05/08 03:20:58;;;;;;;17.53;15.67;;;5.30;99.90;;;;;;4919316;29;20524;-70
2021/05/08 03:23:24;;;;;;;18.17;16.27;;;5.20;99.90;;;;;;4919173;29;20243;-70
2021/05/08 03:25:50;;;;;;;20.00;17.23;;;5.20;99.90;;;;;;4919056;29;20202;-70
2021/05/08 03:28:15;;;;;;;17.87;16.00;;;5.20;99.90;;;;;;4920453;29;20184;-70
2021/05/08 03:30:41;;;;;;;20.73;15.87;;;5.20;99.90;;;;;;4918849;29;20191;-70
2021/05/08 03:33:06;;;;;;;17.13;15.30;;;5.20;99.90;;;;;;4919226;29;20517;-70
2021/05/08 03:35:32;;;;;;;21.03;15.80;;;5.30;99.90;;;;;;4918702;29;20667;-70
2021/05/08 03:37:57;;;;;;;20.50;15.60;;;5.30;99.90;;;;;;4918780;29;20182;-70
2021/05/08 03:40:23;;;;;;;16.13;14.43;;;5.30;99.90;;;;;;4919845;29;20204;-70
2021/05/08 03:42:49;;;;;;;20.53;16.30;;;5.20;99.90;;;;;;4933152;29;20171;-70
2021/05/08 03:45:14;;;;;;;17.60;15.30;;;5.30;99.90;;;;;;4917605;29;20525;-70
2021/05/08 03:47:40;;;;;;;17.20;15.40;;;5.40;99.90;;;;;;4919543;29;20171;-70
2021/05/08 03:50:06;;;;;;;18.60;14.03;;;5.40;99.90;;;;;;4917506;29;20551;-70
2021/05/08 03:52:32;;;;;;;17.40;15.00;;;5.50;99.90;;;;;;4918679;29;20268;-70
2021/05/08 03:54:59;;;;;;;17.10;14.60;;;5.50;99.90;;;;;;4918821;29;20433;-70
2021/05/08 03:57:24;;;;;;;15.67;14.03;;;5.50;99.90;;;;;;4916945;29;20434;-70
2021/05/08 03:59:50;;;;;;;17.53;15.60;;;5.50;99.90;;;;;;4919609;29;20459;-70
2021/05/08 04:02:15;;;;;;;19.60;15.70;;;5.50;99.90;;;;;;4919243;29;20644;-70
2021/05/08 04:04:41;;;;;;;17.50;14.37;;;5.50;99.90;;;;;;4918796;29;20209;-70
2021/05/08 04:07:06;;;;;;;17.30;15.40;;;5.40;99.90;;;;;;4938379;29;20291;-70
2021/05/08 04:09:32;;;;;;;17.33;15.13;;;5.40;99.90;;;;;;4940809;29;20232;-70
2021/05/08 04:11:58;;;;;;;17.40;15.53;;;5.40;99.90;;;;;;4918677;29;20206;-70
2021/05/08 04:14:23;;;;;;;16.97;14.93;;;5.40;99.90;;;;;;4918470;29;20672;-70
2021/05/08 04:16:48;;;;;;;16.20;14.30;;;5.30;99.90;;;;;;4918348;29;20442;-70
2021/05/08 04:19:14;;;;;;;18.20;15.20;;;5.40;99.90;;;;;;4920403;29;20597;-70
2021/05/08 04:21:40;;;;;;;22.03;14.87;;;5.40;99.90;;;;;;4920543;29;20182;-70
2021/05/08 04:24:06;;;;;;;17.13;15.33;;;5.40;99.90;;;;;;4923969;29;20214;-70
2021/05/08 04:26:31;;;;;;;16.90;15.07;;;5.40;99.90;;;;;;4918808;29;20179;-70
2021/05/08 04:28:57;;;;;;;17.30;15.37;;;5.50;99.90;;;;;;4920017;29;20474;-70
2021/05/08 04:31:22;;;;;;;20.20;15.40;;;5.50;99.90;;;;;;4922490;29;20246;-70
2021/05/08 04:33:48;;;;;;;18.50;15.67;;;5.50;99.90;;;;;;4935925;29;20182;-70
2021/05/08 04:36:14;;;;;;;19.30;15.60;;;5.50;99.90;;;;;;4933264;29;20300;-70
2021/05/08 04:38:40;;;;;;;17.90;16.07;;;5.60;99.90;;;;;;4934370;29;20532;-70
2021/05/08 04:41:06;;;;;;;17.77;15.37;;;5.50;99.90;;;;;;4935967;29;20253;-71
2021/05/08 04:43:31;;;;;;;17.30;15.33;;;5.40;99.90;;;;;;4934791;29;20461;-70
2021/05/08 04:45:57;;;;;;;18.87;14.70;;;5.50;99.90;;;;;;4936645;29;20236;-70
2021/05/08 04:48:26;;;;;;;19.20;16.07;;;5.50;99.90;;;;;;4944070;29;20185;-70
2021/05/08 04:50:53;;;;;;;18.90;15.30;;;5.50;99.90;;;;;;4935463;29;20177;-70
2021/05/08 04:53:18;;;;;;;19.37;16.67;;;5.50;99.90;;;;;;4935765;29;20452;-70
2021/05/08 04:55:46;;;;;;;19.07;16.17;;;5.50;99.90;;;;;;4935901;29;20817;-70
2021/05/08 04:58:12;;;;;;;18.90;15.20;;;5.40;99.90;;;;;;4936044;29;20177;-70
2021/05/08 05:00:37;;;;;;;17.93;15.73;;;5.40;99.90;;;;;;4933850;29;20437;-71
2021/05/08 05:03:03;;;;;;;21.40;17.20;;;5.40;99.90;;;;;;4935223;29;20190;-71
2021/05/08 05:05:29;;;;;;;22.87;16.10;;;5.50;99.90;;;;;;4935679;29;20193;-71
2021/05/08 05:07:54;;;;;;;20.40;16.33;;;5.50;99.90;;;;;;4935966;29;20192;-70
2021/05/08 05:10:20;;;;;;;19.27;16.73;;;5.60;99.90;;;;;;4934984;29;20178;-70
2021/05/08 05:12:46;;;;;;;17.80;15.83;;;5.60;99.90;;;;;;4934975;29;20173;-71
2021/05/08 05:15:12;;;;;;;18.53;16.10;;;5.60;99.90;;;;;;4935730;28;20249;-71
2021/05/08 05:17:38;;;;;;;19.53;16.77;;;5.70;99.90;;;;;;4936120;29;20406;-70
2021/05/08 05:20:04;;;;;;;18.40;15.50;;;5.80;99.90;;;;;;4936019;29;20498;-70
2021/05/08 05:22:30;;;;;;;19.10;16.13;;;5.80;99.90;;;;;;4934291;29;20217;-70
2021/05/08 05:24:55;;;;;;;18.73;16.00;;;5.90;99.90;;;;;;4934609;29;20505;-70
2021/05/08 05:27:21;;;;;;;21.27;19.00;;;6.00;99.90;;;;;;4934910;28;20421;-70
2021/05/08 05:29:47;;;;;;;21.00;17.53;;;6.00;99.90;;;;;;4935782;29;20559;-71
2021/05/08 05:32:12;;;;;;;20.30;17.70;;;6.10;99.90;;;;;;4934205;29;20178;-70
2021/05/08 05:34:38;;;;;;;19.83;15.93;;;6.10;99.90;;;;;;4934969;29;20257;-71
2021/05/08 05:37:03;;;;;;;19.70;16.60;;;6.20;99.90;;;;;;4935422;29;20230;-70
2021/05/08 05:39:29;;;;;;;18.17;15.53;;;6.30;99.90;;;;;;4935614;28;20218;-70
2021/05/08 05:41:55;;;;;;;18.67;16.13;;;6.40;99.90;;;;;;4935037;29;20295;-70
2021/05/08 05:44:20;;;;;;;16.80;15.10;;;6.40;99.90;;;;;;4948037;29;20726;-70
2021/05/08 05:46:46;;;;;;;17.10;14.17;;;6.60;99.90;;;;;;4935447;29;20245;-70
2021/05/08 05:49:11;;;;;;;16.10;13.80;;;6.70;99.90;;;;;;4936025;29;20177;-70
2021/05/08 05:51:37;;;;;;;17.80;13.40;;;6.70;99.90;;;;;;4935946;29;20190;-70
2021/05/08 05:54:03;;;;;;;15.97;13.50;;;6.80;99.90;;;;;;4934599;29;20205;-70
2021/05/08 05:56:29;;;;;;;18.20;13.93;;;7.00;99.90;;;;;;4935727;28;20225;-70
2021/05/08 05:58:55;;;;;;;15.23;10.93;;;7.10;99.90;;;;;;4936289;29;20886;-70
2021/05/08 06:01:21;;;;;;;11.30;9.40;;;7.30;99.90;;;;;;4935966;29;20251;-70
2021/05/08 06:03:47;;;;;;;8.93;7.73;;;7.40;99.90;;;;;;4934755;29;20573;-70
2021/05/08 06:06:13;;;;;;;7.87;7.07;;;7.50;99.70;;;;;;4935307;29;20517;-69
2021/05/08 06:08:39;;;;;;;8.33;6.27;;;7.70;98.60;;;;;;4936008;29;20610;-69
2021/05/08 06:11:05;;;;;;;7.00;6.30;;;7.80;97.10;;;;;;4936241;29;20417;-69
2021/05/08 06:13:32;;;;;;;7.80;6.50;;;7.90;96.00;;;;;;4936203;29;20422;-68
2021/05/08 06:16:02;;;;;;;6.90;5.77;;;8.10;95.90;;;;;;4923770;29;20470;-69
2021/05/08 06:18:28;;;;;;;8.00;6.30;;;8.20;95.30;;;;;;4917467;29;20420;-69
2021/05/08 06:20:54;;;;;;;7.30;6.30;;;8.30;95.20;;;;;;4918018;29;20747;-69
2021/05/08 06:23:19;;;;;;;6.73;5.27;;;8.40;95.00;;;;;;4919175;29;20490;-69
2021/05/08 06:25:45;;;;;;;8.07;5.90;;;8.50;94.90;;;;;;4922248;29;20195;-69
2021/05/08 06:28:11;;;;;;;6.27;5.67;;;8.70;94.10;;;;;;4921071;29;20188;-69
2021/05/08 06:30:37;;;;;;;10.00;6.80;;;8.80;93.60;;;;;;4921008;29;20498;-70
2021/05/08 06:33:03;;;;;;;7.77;5.67;;;8.90;93.20;;;;;;4920964;29;20445;-70
2021/05/08 06:35:28;;;;;;;6.43;5.80;;;9.00;92.70;;;;;;4920911;29;20222;-70
2021/05/08 06:37:54;;;;;;;6.47;5.67;;;9.20;92.60;;;;;;4925952;29;20532;-70
2021/05/08 06:40:20;;;;;;;8.60;6.07;;;9.20;92.30;;;;;;4952504;29;20208;-70
2021/05/08 06:42:46;;;;;;;8.30;5.80;;;9.30;91.90;;;;;;4919475;29;20166;-70
2021/05/08 06:45:11;;;;;;;8.97;5.87;;;9.40;91.70;;;;;;4925743;29;20464;-70
2021/05/08 06:47:39;;;;;;;8.20;6.07;;;9.50;91.70;;;;;;4928465;29;20174;-70
2021/05/08 06:50:05;;;;;;;6.53;5.43;;;9.60;91.50;;;;;;4919801;29;20640;-69
2021/05/08 06:52:31;;;;;;;5.80;4.93;;;9.70;91.50;;;;;;4933694;29;20513;-70
2021/05/08 06:54:56;;;;;;;6.53;5.87;;;9.90;91.30;;;;;;4935264;29;20524;-70
2021/05/08 06:57:22;;;;;;;7.97;6.10;;;10.00;90.40;;;;;;4936674;29;20498;-69
2021/05/08 06:59:47;;;;;;;5.90;5.03;;;10.10;90.10;;;;;;4938115;29;20189;-70
2021/05/08 07:02:13;;;;;;;5.63;4.90;;;10.30;89.90;;;;;;4938184;29;20197;-70
2021/05/08 07:04:38;;;;;;;6.43;5.13;;;10.50;89.40;;;;;;4937521;29;20206;-69
2021/05/08 07:07:04;;;;;;;5.70;4.77;;;10.60;88.50;;;;;;4938018;29;20550;-70
2021/05/08 07:09:29;;;;;;;8.50;4.87;;;10.70;87.00;;;;;;4935426;28;20190;-70
2021/05/08 07:11:55;;;;;;;5.73;4.63;;;10.80;86.50;;;;;;4931350;29;20245;-70
2021/05/08 07:14:20;;;;;;;4.80;4.27;;;11.00;86.40;;;;;;4937816;29;20198;-70
2021/05/08 07:16:46;;;;;;;5.47;4.53;;;11.10;85.00;;;;;;4938628;29;20281;-69
2021/05/08 07:19:12;;;;;;;6.53;4.50;;;11.10;84.50;;;;;;4933094;29;20206;-70
2021/05/08 07:21:38;;;;;;;5.10;4.50;;;11.20;83.80;;;;;;4940027;29;20421;-70
2021/05/08 07:24:05;;;;;;;4.77;4.00;;;11.40;83.50;;;;;;4941641;29;20194;-70
2021/05/08 07:26:31;;;;;;;5.00;4.30;;;11.40;82.90;;;;;;4940376;29;21009;-71
2021/05/08 07:28:57;;;;;;;5.07;3.77;;;11.50;81.90;;;;;;4938647;29;20468;-71
2021/05/08 07:31:23;;;;;;;5.90;4.38;;;11.60;81.30;;;;;;4938825;29;20763;-70
2021/05/08 07:33:48;;;;;;;5.03;4.20;;;11.70;81.60;;;;;;4939569;29;20182;-71
2021/05/08 07:36:14;;;;;;;4.60;3.53;;;11.70;80.50;;;;;;4941972;29;20466;-71
2021/05/08 07:38:40;;;;;;;6.20;4.10;;;11.70;80.20;;;;;;4931505;29;20317;-70
2021/05/08 07:41:05;;;;;;;5.63;4.60;;;11.90;80.90;;;;;;4946502;29;20667;-69
2021/05/08 07:43:31;;;;;;;6.30;4.17;;;11.90;79.30;;;;;;4927919;29;20213;-71
2021/05/08 07:45:56;;;;;;;3.90;3.60;;;12.00;79.60;;;;;;4933528;29;20221;-70
2021/05/08 07:48:22;;;;;;;4.57;3.40;;;12.00;79.10;;;;;;4932961;29;21027;-71
2021/05/08 07:50:48;;;;;;;4.97;4.10;;;12.10;78.40;;;;;;4931540;29;20715;-72
2021/05/08 07:53:13;;;;;;;4.67;4.10;;;12.20;77.80;;;;;;4931508;28;20245;-70
2021/05/08 07:55:39;;;;;;;5.83;3.77;;;12.10;77.30;;;;;;4932156;29;20691;-71
2021/05/08 07:58:07;;;;;;;4.43;3.37;;;12.10;76.60;;;;;;4934483;29;20703;-71
2021/05/08 08:00:33;;;;;;;5.07;4.57;;;12.20;76.20;;;;;;4946942;29;20517;-71
2021/05/08 08:02:59;;;;;;;6.30;3.90;;;12.20;76.20;;;;;;4942252;29;20454;-71
2021/05/08 08:05:24;;;;;;;5.87;4.27;;;12.30;76.50;;;;;;4941129;29;21262;-71
2021/05/08 08:07:50;;;;;;;5.83;4.07;;;12.30;76.20;;;;;;4934230;29;20928;-69
2021/05/08 08:10:16;;;;;;;5.57;4.20;;;12.20;76.90;;;;;;4933808;29;20180;-72
2021/05/08 08:12:42;;;;;;;5.93;3.93;;;12.30;77.30;;;;;;4932859;29;20264;-70
2021/05/08 08:15:11;;;;;;;5.20;4.00;;;12.40;77.20;;;;;;4934008;29;21030;-71
2021/05/08 08:17:37;;;;;;;5.07;4.53;;;12.50;76.90;;;;;;4934004;29;20433;-69
2021/05/08 08:20:11;;;;;;;4.23;3.70;;;12.60;76.80;;;;;;4946712;29;20435;-70
2021/05/08 08:22:38;;;;;;;4.63;3.90;;;12.70;77.90;;;;;;4930052;29;20202;-71
2021/05/08 08:25:05;;;;;;;4.83;3.97;;;12.70;77.20;;;;;;4936558;29;20568;-69
2021/05/08 08:27:30;;;;;;;4.07;3.67;;;12.80;76.80;;;;;;4933578;29;20436;-70
2021/05/08 08:29:57;;;;;;;3.97;3.50;;;12.80;76.90;;;;;;4933179;29;20780;-70
2021/05/08 08:32:23;;;;;;;4.67;3.67;;;12.90;76.90;;;;;;4931958;29;20201;-71
2021/05/08 08:34:48;;;;;;;9.87;4.13;;;12.90;77.00;;;;;;4925333;29;20462;-72
2021/05/08 08:37:24;;;;;;;4.53;4.10;;;13.00;76.60;;;;;;4933331;29;20619;-70
2021/05/08 08:39:50;;;;;;;4.23;3.83;;;13.20;76.80;;;;;;4948633;29;20620;-70
2021/05/08 08:42:17;;;;;;;4.80;4.33;;;13.30;76.80;;;;;;4933204;29;20426;-70
2021/05/08 08:44:42;;;;;;;4.97;4.30;;;13.40;76.70;;;;;;4927397;29;20304;-69
2021/05/08 08:47:28;;;;;;;4.03;3.50;;;13.50;76.10;;;;;;4934323;29;20426;-69
2021/05/08 08:50:14;;;;;;;4.43;3.90;;;13.50;75.40;;;;;;4934705;29;20188;-70
2021/05/08 08:52:40;;;;;;;4.53;3.37;;;13.60;74.80;;;;;;4935199;29;20433;-71
2021/05/08 08:55:07;;;;;;;4.23;3.13;;;13.70;75.10;;;;;;4917176;29;21111;-70
2021/05/08 08:57:38;;;;;;;5.38;4.22;;;13.70;74.90;;;;;;4929127;29;20330;-69
2021/05/08 09:00:21;;;;;;;4.77;3.70;;;13.70;75.00;;;;;;4931801;29;20186;-69
2021/05/08 09:02:50;;;;;;;4.80;3.90;;;13.90;75.20;;;;;;4931481;29;20424;-70
2021/05/08 09:05:18;;;;;;;6.17;3.87;;;14.00;74.70;;;;;;4929557;29;20542;-69
2021/05/08 09:07:46;;;;;;;4.03;3.00;;;14.00;73.90;;;;;;4931044;29;20516;-70
2021/05/08 09:10:32;;;;;;;5.13;4.10;;;14.00;73.40;;;;;;4932842;29;20429;-70
2021/05/08 09:13:03;;;;;;;4.20;3.60;;;14.10;73.20;;;;;;4932732;29;20708;-70
2021/05/08 09:15:38;;;;;;;3.33;3.03;;;14.00;72.80;;;;;;4930713;29;20465;-70
2021/05/08 09:18:05;;;;;;;5.23;3.93;;;14.10;73.10;;;;;;4930148;29;20441;-70
2021/05/08 09:20:48;;;;;;;3.93;3.23;;;14.10;73.10;;;;;;4932907;29;20473;-70
2021/05/08 09:23:31;;;;;;;4.73;3.20;;;14.00;72.30;;;;;;4931242;29;20430;-70
2021/05/08 09:26:05;;;;;;;4.63;3.53;;;14.00;71.90;;;;;;4930476;29;20452;-70
2021/05/08 09:28:33;;;;;;;3.47;3.17;;;14.10;71.90;;;;;;4931723;29;20537;-70
2021/05/08 09:30:59;;;;;;;5.33;3.40;;;14.20;71.50;;;;;;4932133;29;20411;-70
2021/05/08 09:33:27;;;;;;;3.50;3.20;;;14.10;71.00;;;;;;4926183;29;20442;-70
2021/05/08 09:36:02;;;;;;;5.07;3.33;;;14.20;71.10;;;;;;4931000;29;20202;-70
2021/05/08 09:38:34;;;;;;;4.30;3.30;;;14.30;71.40;;;;;;4932432;29;20410;-70
2021/05/08 09:41:00;;;;;;;3.77;3.10;;;14.40;70.70;;;;;;4940832;29;20423;-70
2021/05/08 09:43:26;;;;;;;3.40;3.10;;;14.40;70.20;;;;;;4927217;28;20430;-70
2021/05/08 09:45:52;;;;;;;3.87;3.47;;;14.50;70.40;;;;;;4932508;29;20534;-70
2021/05/08 09:48:35;;;;;;;3.67;3.20;;;14.50;69.60;;;;;;4916634;29;20424;-70
2021/05/08 09:51:25;;;;;;;9.43;4.10;;;14.50;69.50;;;;;;4932221;29;20484;-70
2021/05/08 09:53:52;;;;;;;3.60;3.30;;;14.60;70.70;;;;;;4918065;29;20431;-70
2021/05/08 09:56:40;;;;;;;4.17;3.77;;;14.80;69.50;;;;;;4915339;29;20436;-70
2021/05/08 09:59:34;;;;;;;7.07;3.83;;;14.80;68.30;;;;;;4935607;29;20421;-70
2021/05/08 10:02:02;;;;;;;6.30;3.00;;;14.80;67.30;;;;;;4935888;29;20429;-70
2021/05/08 10:04:29;;;;;;;4.90;3.23;;;14.80;67.60;;;;;;4925582;29;20489;-70
2021/05/08 10:07:15;;;;;;;3.70;3.37;;;14.90;67.80;;;;;;4936033;29;20478;-70
2021/05/08 10:09:43;;;;;;;5.17;3.67;;;15.00;66.70;;;;;;4935568;29;20922;-71
2021/05/08 10:12:18;;;;;;;4.63;4.20;;;15.00;66.20;;;;;;4934200;29;20449;-70
2021/05/08 10:14:46;;;;;;;4.70;4.10;;;15.10;65.50;;;;;;4930429;29;20449;-70
2021/05/08 10:17:13;;;;;;;10.70;5.17;;;15.00;66.00;;;;;;4935650;29;20432;-70
2021/05/08 10:19:40;;;;;;;4.60;4.20;;;15.00;64.80;;;;;;4936072;29;20836;-70
2021/05/08 10:22:10;;;;;;;4.30;3.50;;;15.20;65.10;;;;;;4935614;29;21010;-70
2021/05/08 10:24:41;;;;;;;4.80;4.28;;;15.20;65.00;;;;;;4933613;29;20443;-71
2021/05/08 10:27:07;;;;;;;6.03;4.60;;;15.30;64.40;;;;;;4935530;29;20190;-70
2021/05/08 10:29:39;;;;;;;5.53;5.03;;;15.40;63.50;;;;;;4935541;29;20414;-70
2021/05/08 10:32:07;;;;;;;6.97;3.87;;;15.50;62.30;;;;;;4934866;29;20454;-71
2021/05/08 10:34:49;;;;;;;5.00;3.93;;;15.60;62.10;;;;;;4934466;29;20465;-71
2021/05/08 10:37:15;;;;;;;5.30;3.87;;;15.80;61.90;;;;;;4926762;29;20504;-71
2021/05/08 10:39:51;;;;;;;5.40;3.77;;;15.70;61.30;;;;;;4935492;29;21220;-70
2021/05/08 10:42:34;;;;;;;4.57;3.83;;;15.90;61.80;;;;;;4935214;29;20941;-70
2021/05/08 10:45:07;;;;;;;4.43;3.67;;;15.90;60.90;;;;;;4935052;29;20461;-70
2021/05/08 10:47:55;;;;;;;3.83;3.50;;;16.00;61.40;;;;;;4945747;29;20431;-71
2021/05/08 10:50:42;;;;;;;4.83;3.80;;;16.00;60.30;;;;;;4919045;29;20750;-70
2021/05/08 10:53:11;;;;;;;4.33;3.60;;;16.00;59.90;;;;;;4942554;29;20644;-70
2021/05/08 10:55:59;;;;;;;4.80;3.70;;;15.90;59.90;;;;;;4934991;29;20521;-71
2021/05/08 10:58:31;;;;;;;7.60;3.60;;;16.10;60.10;;;;;;4920652;29;20410;-70
2021/05/08 11:01:07;;;;;;;4.87;3.80;;;16.30;59.60;;;;;;4935166;29;20414;-70
2021/05/08 11:03:57;;;;;;;5.40;3.40;;;16.40;59.40;;;;;;4935087;29;20544;-70
2021/05/08 11:06:23;;;;;;;3.73;3.30;;;16.40;58.60;;;;;;4923288;29;20505;-70
2021/05/08 11:08:49;;;;;;;3.40;3.10;;;16.40;58.00;;;;;;4931530;29;20438;-70
2021/05/08 11:11:25;;;;;;;3.43;3.10;;;16.60;58.20;;;;;;4934142;29;20509;-71
2021/05/08 11:13:56;;;;;;;3.50;3.20;;;16.60;56.80;;;;;;4934850;29;20810;-71
2021/05/08 11:16:30;;;;;;;7.20;3.60;;;16.60;56.50;;;;;;4943685;29;20525;-70
2021/05/08 11:19:00;;;;;;;3.77;3.37;;;16.60;56.80;;;;;;4931559;28;20881;-71
2021/05/08 11:21:30;;;;;;;6.07;2.90;;;16.50;56.40;;;;;;4935261;29;20470;-71
2021/05/08 11:23:58;;;;;;;4.93;3.43;;;16.50;56.40;;;;;;4918593;29;20450;-70
2021/05/08 11:26:34;;;;;;;3.97;3.57;;;16.50;56.60;;;;;;4926664;29;20998;-70
2021/05/08 11:29:04;;;;;;;4.33;3.47;;;16.50;56.60;;;;;;4940578;29;20445;-71
2021/05/08 11:31:45;;;;;;;3.77;3.37;;;16.60;56.80;;;;;;4935350;29;20485;-71
2021/05/08 11:34:21;;;;;;;3.93;3.20;;;16.70;56.90;;;;;;4921954;29;20427;-71
2021/05/08 11:36:53;;;;;;;4.27;3.73;;;16.80;56.90;;;;;;4916186;29;20509;-71
2021/05/08 11:39:28;;;;;;;3.87;3.23;;;16.80;56.60;;;;;;4917906;29;20490;-72
2021/05/08 11:41:58;;;;;;;3.97;3.23;;;16.70;55.90;;;;;;4916480;29;20422;-70
2021/05/08 11:44:32;;;;;;;4.10;2.80;;;16.60;56.10;;;;;;4916324;29;20458;-71
2021/05/08 11:50:11;;;;;;;3.07;2.77;;;16.80;56.80;;;;;;4917580;29;20512;-72
2021/05/08 11:52:39;;;;;;;2.90;2.70;;;16.80;56.50;;;;;;4916887;29;20914;-70
2021/05/08 11:55:16;;;;;;;3.80;2.80;;;16.80;56.70;;;;;;4918445;29;20479;-70
2021/05/08 11:57:46;;;;;;;3.10;2.90;;;17.00;56.70;;;;;;4918644;29;20417;-71
2021/05/08 12:00:16;;;;;;;3.50;2.73;;;17.00;56.40;;;;;;4919205;29;20441;-71
2021/05/08 12:02:41;;;;;;;2.97;2.67;;;17.10;56.80;;;;;;4918251;29;20415;-71
2021/05/08 12:05:07;;;;;;;2.37;2.17;;;17.00;57.00;;;;;;4918040;29;20473;-71
2021/05/08 12:07:39;;;;;;;5.27;3.00;;;17.00;57.80;;;;;;4918263;29;20182;-71
2021/05/08 12:10:17;;;;;;;2.67;2.47;;;16.90;57.80;;;;;;4932688;29;20720;-71
2021/05/08 12:12:53;;;;;;;2.90;2.70;;;17.00;58.30;;;;;;4918202;29;20422;-70
2021/05/08 12:15:27;;;;;;;5.50;2.20;;;16.80;58.60;;;;;;4918259;29;20459;-71
2021/05/08 12:17:57;;;;;;;5.20;2.50;;;16.80;59.20;;;;;;4918321;29;20419;-71
2021/05/08 12:20:28;;;;;;;4.40;2.90;;;16.90;59.30;;;;;;4917782;29;20882;-71
2021/05/08 12:23:08;;;;;;;3.37;3.07;;;16.70;59.60;;;;;;4919240;29;20451;-71
2021/05/08 12:25:35;;;;;;;3.00;2.80;;;16.30;61.20;;;;;;4918101;29;20462;-71
2021/05/08 12:28:21;;;;;;;3.30;3.00;;;16.20;62.90;;;;;;4918151;29;20483;-70
2021/05/08 12:30:48;;;;;;;3.43;3.13;;;16.00;65.30;;;;;;4918924;29;20415;-71
2021/05/08 12:33:21;;;;;;;3.50;2.77;;;15.80;66.70;;;;;;4917812;29;20418;-70
2021/05/08 12:35:47;;;;;;;3.23;2.93;;;15.80;67.70;;;;;;4918239;29;20991;-71
2021/05/08 12:38:25;;;;;;;3.47;2.80;;;15.70;67.80;;;;;;4917610;29;20414;-71
2021/05/08 12:40:51;;;;;;;3.13;2.80;;;15.70;68.30;;;;;;4919293;29;20418;-71
2021/05/08 12:43:28;;;;;;;3.80;3.50;;;15.80;69.90;;;;;;4918270;29;20494;-70
2021/05/08 12:46:07;;;;;;;2.97;2.70;;;15.90;70.20;;;;;;4917770;29;20426;-72
2021/05/08 12:48:38;;;;;;;3.50;2.60;;;16.10;71.80;;;;;;4918036;29;20411;-71
2021/05/08 12:51:30;;;;;;;7.13;2.77;;;16.20;74.00;;;;;;4917754;29;20418;-71
2021/05/08 12:54:29;;;;;;;3.50;2.77;;;16.10;75.40;;;;;;4917685;29;20745;-71
2021/05/08 12:57:08;;;;;;;4.23;2.90;;;16.20;76.60;;;;;;4918106;29;20407;-72